sensor_id;sensor_type;location;lat;lon;timestamp;P1;durP1;ratioP1;P2;durP2;ratioP2
20669;SDS011;10494;50.868;4.180;2023-10-13T00:01:53;20.73;;;11.40;;
20669;SDS011;10494;50.868;4.180;2023-10-13T00:04:20;20.77;;;12.15;;
20669;SDS011;10494;50.868;4.180;2023-10-13T00:06:53;23.45;;;11.68;;
20669;SDS011;10494;50.868;4.180;2023-10-13T00:09:22;26.52;;;12.55;;
20669;SDS011;10494;50.868;4.180;2023-10-13T00:11:57;22.20;;;12.20;;
20669;SDS011;10494;50.868;4.180;2023-10-13T00:14:25;23.30;;;12.65;;
20669;SDS011;10494;50.868;4.180;2023-10-13T00:16:59;18.25;;;12.27;;
20669;SDS011;10494;50.868;4.180;2023-10-13T00:19:29;27.95;;;14.68;;
20669;SDS011;10494;50.868;4.180;2023-10-13T00:22:16;28.00;;;14.30;;
20669;SDS011;10494;50.868;4.180;2023-10-13T00:24:43;37.60;;;17.38;;
20669;SDS011;10494;50.868;4.180;2023-10-13T00:27:11;36.83;;;18.02;;
20669;SDS011;10494;50.868;4.180;2023-10-13T00:29:58;43.75;;;18.00;;
20669;SDS011;10494;50.868;4.180;2023-10-13T00:32:48;34.88;;;19.45;;
20669;SDS011;10494;50.868;4.180;2023-10-13T00:35:25;36.65;;;20.15;;
20669;SDS011;10494;50.868;4.180;2023-10-13T00:38:05;42.70;;;20.25;;
20669;SDS011;10494;50.868;4.180;2023-10-13T00:40:44;38.75;;;20.65;;
20669;SDS011;10494;50.868;4.180;2023-10-13T00:43:16;34.30;;;20.23;;
20669;SDS011;10494;50.868;4.180;2023-10-13T00:48:32;42.58;;;22.00;;
20669;SDS011;10494;50.868;4.180;2023-10-13T00:51:02;37.50;;;21.50;;
20669;SDS011;10494;50.868;4.180;2023-10-13T00:53:31;37.55;;;21.08;;
20669;SDS011;10494;50.868;4.180;2023-10-13T00:56:05;41.33;;;22.13;;
20669;SDS011;10494;50.868;4.180;2023-10-13T00:58:52;40.58;;;23.65;;
20669;SDS011;10494;50.868;4.180;2023-10-13T01:01:19;49.35;;;24.23;;
20669;SDS011;10494;50.868;4.180;2023-10-13T01:03:54;44.97;;;23.95;;
20669;SDS011;10494;50.868;4.180;2023-10-13T01:06:23;41.85;;;23.98;;
20669;SDS011;10494;50.868;4.180;2023-10-13T01:09:03;37.70;;;23.48;;
20669;SDS011;10494;50.868;4.180;2023-10-13T01:11:48;43.22;;;23.48;;
20669;SDS011;10494;50.868;4.180;2023-10-13T01:14:21;41.65;;;23.20;;
20669;SDS011;10494;50.868;4.180;2023-10-13T01:16:52;40.60;;;23.55;;
20669;SDS011;10494;50.868;4.180;2023-10-13T01:19:18;44.05;;;23.25;;
20669;SDS011;10494;50.868;4.180;2023-10-13T01:21:49;45.65;;;23.63;;
20669;SDS011;10494;50.868;4.180;2023-10-13T01:24:21;41.92;;;22.15;;
20669;SDS011;10494;50.868;4.180;2023-10-13T01:26:49;45.55;;;22.55;;
20669;SDS011;10494;50.868;4.180;2023-10-13T01:29:16;38.38;;;22.20;;
20669;SDS011;10494;50.868;4.180;2023-10-13T01:31:44;49.55;;;22.92;;
20669;SDS011;10494;50.868;4.180;2023-10-13T01:34:14;41.28;;;22.48;;
20669;SDS011;10494;50.868;4.180;2023-10-13T01:36:54;38.35;;;20.85;;
20669;SDS011;10494;50.868;4.180;2023-10-13T01:39:21;40.72;;;21.58;;
20669;SDS011;10494;50.868;4.180;2023-10-13T01:41:51;44.90;;;22.85;;
20669;SDS011;10494;50.868;4.180;2023-10-13T01:44:23;37.60;;;21.08;;
20669;SDS011;10494;50.868;4.180;2023-10-13T01:46:49;44.13;;;21.42;;
20669;SDS011;10494;50.868;4.180;2023-10-13T01:49:16;42.90;;;22.05;;
20669;SDS011;10494;50.868;4.180;2023-10-13T01:51:41;39.05;;;21.67;;
20669;SDS011;10494;50.868;4.180;2023-10-13T01:54:07;41.50;;;21.85;;
20669;SDS011;10494;50.868;4.180;2023-10-13T01:56:37;37.88;;;21.10;;
20669;SDS011;10494;50.868;4.180;2023-10-13T01:59:08;37.85;;;20.15;;
20669;SDS011;10494;50.868;4.180;2023-10-13T02:01:34;45.00;;;20.77;;
20669;SDS011;10494;50.868;4.180;2023-10-13T02:04:00;34.47;;;20.75;;
20669;SDS011;10494;50.868;4.180;2023-10-13T02:06:29;41.20;;;20.92;;
20669;SDS011;10494;50.868;4.180;2023-10-13T02:09:01;41.72;;;20.42;;
20669;SDS011;10494;50.868;4.180;2023-10-13T02:11:35;46.40;;;22.95;;
20669;SDS011;10494;50.868;4.180;2023-10-13T02:14:04;41.30;;;20.85;;
20669;SDS011;10494;50.868;4.180;2023-10-13T02:16:30;40.17;;;22.40;;
20669;SDS011;10494;50.868;4.180;2023-10-13T02:18:56;41.35;;;21.98;;
20669;SDS011;10494;50.868;4.180;2023-10-13T02:21:22;41.60;;;20.02;;
20669;SDS011;10494;50.868;4.180;2023-10-13T02:23:56;36.60;;;20.48;;
20669;SDS011;10494;50.868;4.180;2023-10-13T02:26:31;43.95;;;21.70;;
20669;SDS011;10494;50.868;4.180;2023-10-13T02:29:02;37.38;;;20.02;;
20669;SDS011;10494;50.868;4.180;2023-10-13T02:31:32;31.75;;;20.52;;
20669;SDS011;10494;50.868;4.180;2023-10-13T02:34:00;38.53;;;19.02;;
20669;SDS011;10494;50.868;4.180;2023-10-13T02:36:26;39.42;;;19.63;;
20669;SDS011;10494;50.868;4.180;2023-10-13T02:39:10;38.63;;;20.30;;
20669;SDS011;10494;50.868;4.180;2023-10-13T02:41:38;41.47;;;20.77;;
20669;SDS011;10494;50.868;4.180;2023-10-13T02:44:05;47.17;;;20.27;;
20669;SDS011;10494;50.868;4.180;2023-10-13T02:46:31;34.10;;;18.63;;
20669;SDS011;10494;50.868;4.180;2023-10-13T02:49:00;35.13;;;18.90;;
20669;SDS011;10494;50.868;4.180;2023-10-13T02:51:35;36.53;;;19.80;;
20669;SDS011;10494;50.868;4.180;2023-10-13T02:54:01;41.17;;;18.65;;
20669;SDS011;10494;50.868;4.180;2023-10-13T02:56:35;36.13;;;19.20;;
20669;SDS011;10494;50.868;4.180;2023-10-13T02:59:01;39.47;;;20.38;;
20669;SDS011;10494;50.868;4.180;2023-10-13T03:01:34;35.92;;;19.95;;
20669;SDS011;10494;50.868;4.180;2023-10-13T03:04:03;37.15;;;18.95;;
20669;SDS011;10494;50.868;4.180;2023-10-13T03:06:33;36.22;;;19.00;;
20669;SDS011;10494;50.868;4.180;2023-10-13T03:09:03;37.70;;;18.63;;
20669;SDS011;10494;50.868;4.180;2023-10-13T03:11:46;35.55;;;18.88;;
20669;SDS011;10494;50.868;4.180;2023-10-13T03:14:16;36.72;;;20.10;;
20669;SDS011;10494;50.868;4.180;2023-10-13T03:17:01;39.78;;;19.55;;
20669;SDS011;10494;50.868;4.180;2023-10-13T03:19:29;28.15;;;16.98;;
20669;SDS011;10494;50.868;4.180;2023-10-13T03:22:08;30.50;;;15.50;;
20669;SDS011;10494;50.868;4.180;2023-10-13T03:24:39;35.08;;;17.67;;
20669;SDS011;10494;50.868;4.180;2023-10-13T03:27:15;31.75;;;16.80;;
20669;SDS011;10494;50.868;4.180;2023-10-13T03:29:43;31.92;;;16.42;;
20669;SDS011;10494;50.868;4.180;2023-10-13T03:32:13;28.42;;;15.57;;
20669;SDS011;10494;50.868;4.180;2023-10-13T03:34:43;29.05;;;14.60;;
20669;SDS011;10494;50.868;4.180;2023-10-13T03:37:25;31.90;;;14.60;;
20669;SDS011;10494;50.868;4.180;2023-10-13T03:40:12;31.63;;;14.35;;
20669;SDS011;10494;50.868;4.180;2023-10-13T03:45:31;27.90;;;13.05;;
20669;SDS011;10494;50.868;4.180;2023-10-13T03:48:16;22.70;;;12.38;;
20669;SDS011;10494;50.868;4.180;2023-10-13T03:50:48;27.90;;;13.35;;
20669;SDS011;10494;50.868;4.180;2023-10-13T03:53:26;26.05;;;12.50;;
20669;SDS011;10494;50.868;4.180;2023-10-13T03:55:53;27.20;;;13.10;;
20669;SDS011;10494;50.868;4.180;2023-10-13T03:58:33;21.52;;;11.65;;
20669;SDS011;10494;50.868;4.180;2023-10-13T04:01:00;22.35;;;12.10;;
20669;SDS011;10494;50.868;4.180;2023-10-13T04:03:26;23.63;;;11.63;;
20669;SDS011;10494;50.868;4.180;2023-10-13T04:06:07;24.40;;;12.23;;
20669;SDS011;10494;50.868;4.180;2023-10-13T04:08:41;22.00;;;10.98;;
20669;SDS011;10494;50.868;4.180;2023-10-13T04:11:32;21.02;;;10.75;;
20669;SDS011;10494;50.868;4.180;2023-10-13T04:14:17;21.58;;;10.80;;
20669;SDS011;10494;50.868;4.180;2023-10-13T04:17:08;22.45;;;10.60;;
20669;SDS011;10494;50.868;4.180;2023-10-13T04:19:55;21.60;;;10.07;;
20669;SDS011;10494;50.868;4.180;2023-10-13T04:22:37;25.75;;;9.90;;
20669;SDS011;10494;50.868;4.180;2023-10-13T04:25:20;26.70;;;9.77;;
20669;SDS011;10494;50.868;4.180;2023-10-13T04:28:07;18.33;;;8.80;;
20669;SDS011;10494;50.868;4.180;2023-10-13T04:30:38;15.70;;;8.90;;
20669;SDS011;10494;50.868;4.180;2023-10-13T04:33:30;21.25;;;9.07;;
20669;SDS011;10494;50.868;4.180;2023-10-13T04:36:03;17.80;;;8.93;;
20669;SDS011;10494;50.868;4.180;2023-10-13T04:38:49;21.98;;;9.48;;
20669;SDS011;10494;50.868;4.180;2023-10-13T04:41:28;20.15;;;9.13;;
20669;SDS011;10494;50.868;4.180;2023-10-13T04:43:59;20.10;;;8.73;;
20669;SDS011;10494;50.868;4.180;2023-10-13T04:46:48;22.52;;;9.40;;
20669;SDS011;10494;50.868;4.180;2023-10-13T04:49:14;32.05;;;9.50;;
20669;SDS011;10494;50.868;4.180;2023-10-13T04:51:59;23.77;;;10.40;;
20669;SDS011;10494;50.868;4.180;2023-10-13T04:54:29;27.30;;;9.82;;
20669;SDS011;10494;50.868;4.180;2023-10-13T04:57:19;20.55;;;9.32;;
20669;SDS011;10494;50.868;4.180;2023-10-13T05:00:12;20.92;;;9.35;;
20669;SDS011;10494;50.868;4.180;2023-10-13T05:02:45;20.83;;;9.52;;
20669;SDS011;10494;50.868;4.180;2023-10-13T05:05:37;26.80;;;9.02;;
20669;SDS011;10494;50.868;4.180;2023-10-13T05:08:11;22.83;;;9.73;;
20669;SDS011;10494;50.868;4.180;2023-10-13T05:10:56;30.83;;;10.15;;
20669;SDS011;10494;50.868;4.180;2023-10-13T05:14:00;21.75;;;9.55;;
20669;SDS011;10494;50.868;4.180;2023-10-13T05:16:44;23.98;;;9.00;;
20669;SDS011;10494;50.868;4.180;2023-10-13T05:19:28;27.38;;;9.35;;
20669;SDS011;10494;50.868;4.180;2023-10-13T05:22:12;26.15;;;9.40;;
20669;SDS011;10494;50.868;4.180;2023-10-13T05:24:56;18.85;;;9.25;;
20669;SDS011;10494;50.868;4.180;2023-10-13T05:27:40;22.20;;;10.00;;
20669;SDS011;10494;50.868;4.180;2023-10-13T05:30:24;29.13;;;10.30;;
20669;SDS011;10494;50.868;4.180;2023-10-13T05:33:08;25.23;;;11.30;;
20669;SDS011;10494;50.868;4.180;2023-10-13T05:35:53;31.95;;;13.32;;
20669;SDS011;10494;50.868;4.180;2023-10-13T05:38:53;40.13;;;15.73;;
20669;SDS011;10494;50.868;4.180;2023-10-13T05:41:37;31.67;;;15.27;;
20669;SDS011;10494;50.868;4.180;2023-10-13T05:44:22;36.80;;;15.68;;
20669;SDS011;10494;50.868;4.180;2023-10-13T05:47:10;31.67;;;16.10;;
20669;SDS011;10494;50.868;4.180;2023-10-13T05:50:08;41.17;;;16.48;;
20669;SDS011;10494;50.868;4.180;2023-10-13T05:52:46;36.28;;;15.38;;
20669;SDS011;10494;50.868;4.180;2023-10-13T05:55:17;30.98;;;13.35;;
20669;SDS011;10494;50.868;4.180;2023-10-13T05:58:01;27.27;;;12.73;;
20669;SDS011;10494;50.868;4.180;2023-10-13T06:00:46;39.35;;;12.23;;
20669;SDS011;10494;50.868;4.180;2023-10-13T06:03:30;39.72;;;12.65;;
20669;SDS011;10494;50.868;4.180;2023-10-13T06:06:14;26.23;;;11.48;;
20669;SDS011;10494;50.868;4.180;2023-10-13T06:08:58;27.23;;;11.63;;
20669;SDS011;10494;50.868;4.180;2023-10-13T06:11:42;20.00;;;9.88;;
20669;SDS011;10494;50.868;4.180;2023-10-13T06:14:26;26.80;;;10.13;;
20669;SDS011;10494;50.868;4.180;2023-10-13T06:17:10;22.33;;;8.90;;
20669;SDS011;10494;50.868;4.180;2023-10-13T06:19:54;21.42;;;9.15;;
20669;SDS011;10494;50.868;4.180;2023-10-13T06:22:38;20.42;;;8.05;;
20669;SDS011;10494;50.868;4.180;2023-10-13T06:25:22;32.67;;;8.70;;
20669;SDS011;10494;50.868;4.180;2023-10-13T06:28:06;25.88;;;8.10;;
20669;SDS011;10494;50.868;4.180;2023-10-13T06:30:57;23.48;;;9.32;;
20669;SDS011;10494;50.868;4.180;2023-10-13T06:33:25;20.70;;;8.48;;
20669;SDS011;10494;50.868;4.180;2023-10-13T06:35:57;24.92;;;9.65;;
20669;SDS011;10494;50.868;4.180;2023-10-13T06:38:23;20.95;;;8.43;;
20669;SDS011;10494;50.868;4.180;2023-10-13T06:40:49;22.90;;;9.80;;
20669;SDS011;10494;50.868;4.180;2023-10-13T06:43:17;21.83;;;8.95;;
20669;SDS011;10494;50.868;4.180;2023-10-13T06:45:46;22.08;;;9.63;;
20669;SDS011;10494;50.868;4.180;2023-10-13T06:48:25;22.58;;;9.02;;
20669;SDS011;10494;50.868;4.180;2023-10-13T06:50:51;28.05;;;9.98;;
20669;SDS011;10494;50.868;4.180;2023-10-13T06:53:18;22.75;;;10.20;;
20669;SDS011;10494;50.868;4.180;2023-10-13T06:55:44;22.48;;;9.60;;
20669;SDS011;10494;50.868;4.180;2023-10-13T06:58:12;25.70;;;9.00;;
20669;SDS011;10494;50.868;4.180;2023-10-13T07:00:39;27.77;;;10.10;;
20669;SDS011;10494;50.868;4.180;2023-10-13T07:03:06;24.17;;;9.93;;
20669;SDS011;10494;50.868;4.180;2023-10-13T07:05:38;23.10;;;9.27;;
20669;SDS011;10494;50.868;4.180;2023-10-13T07:08:05;27.35;;;9.18;;
20669;SDS011;10494;50.868;4.180;2023-10-13T07:10:31;20.13;;;9.10;;
20669;SDS011;10494;50.868;4.180;2023-10-13T07:13:09;21.25;;;8.27;;
20669;SDS011;10494;50.868;4.180;2023-10-13T07:15:38;16.42;;;7.55;;
20669;SDS011;10494;50.868;4.180;2023-10-13T07:18:10;30.83;;;7.90;;
20669;SDS011;10494;50.868;4.180;2023-10-13T07:20:38;24.88;;;8.68;;
20669;SDS011;10494;50.868;4.180;2023-10-13T07:23:09;18.38;;;7.63;;
20669;SDS011;10494;50.868;4.180;2023-10-13T07:25:55;29.90;;;8.20;;
20669;SDS011;10494;50.868;4.180;2023-10-13T07:28:30;14.32;;;7.45;;
20669;SDS011;10494;50.868;4.180;2023-10-13T07:31:01;24.73;;;8.15;;
20669;SDS011;10494;50.868;4.180;2023-10-13T07:33:27;18.70;;;7.60;;
20669;SDS011;10494;50.868;4.180;2023-10-13T07:36:03;18.65;;;7.18;;
20669;SDS011;10494;50.868;4.180;2023-10-13T07:38:41;17.73;;;7.00;;
20669;SDS011;10494;50.868;4.180;2023-10-13T07:41:07;18.45;;;7.30;;
20669;SDS011;10494;50.868;4.180;2023-10-13T07:43:34;16.10;;;6.72;;
20669;SDS011;10494;50.868;4.180;2023-10-13T07:46:02;22.90;;;7.53;;
20669;SDS011;10494;50.868;4.180;2023-10-13T07:48:34;22.13;;;7.20;;
20669;SDS011;10494;50.868;4.180;2023-10-13T07:51:05;18.52;;;7.28;;
20669;SDS011;10494;50.868;4.180;2023-10-13T07:53:38;27.50;;;7.93;;
20669;SDS011;10494;50.868;4.180;2023-10-13T07:56:05;16.33;;;6.68;;
20669;SDS011;10494;50.868;4.180;2023-10-13T07:58:33;26.67;;;7.32;;
20669;SDS011;10494;50.868;4.180;2023-10-13T08:00:59;19.92;;;7.03;;
20669;SDS011;10494;50.868;4.180;2023-10-13T08:03:32;16.30;;;6.82;;
20669;SDS011;10494;50.868;4.180;2023-10-13T08:06:10;22.90;;;7.38;;
20669;SDS011;10494;50.868;4.180;2023-10-13T08:08:37;17.00;;;6.60;;
20669;SDS011;10494;50.868;4.180;2023-10-13T08:11:04;21.40;;;6.97;;
20669;SDS011;10494;50.868;4.180;2023-10-13T08:13:39;18.90;;;6.75;;
20669;SDS011;10494;50.868;4.180;2023-10-13T08:16:14;13.90;;;6.43;;
20669;SDS011;10494;50.868;4.180;2023-10-13T08:18:47;16.55;;;7.05;;
20669;SDS011;10494;50.868;4.180;2023-10-13T08:21:15;18.92;;;7.28;;
20669;SDS011;10494;50.868;4.180;2023-10-13T08:23:48;23.27;;;6.75;;
20669;SDS011;10494;50.868;4.180;2023-10-13T08:26:23;19.60;;;6.60;;
20669;SDS011;10494;50.868;4.180;2023-10-13T08:29:12;20.13;;;7.32;;
20669;SDS011;10494;50.868;4.180;2023-10-13T08:31:43;19.35;;;6.35;;
20669;SDS011;10494;50.868;4.180;2023-10-13T08:34:28;20.40;;;6.78;;
20669;SDS011;10494;50.868;4.180;2023-10-13T08:37:03;18.02;;;6.22;;
20669;SDS011;10494;50.868;4.180;2023-10-13T08:39:54;25.38;;;6.85;;
20669;SDS011;10494;50.868;4.180;2023-10-13T08:42:44;17.05;;;5.82;;
20669;SDS011;10494;50.868;4.180;2023-10-13T08:45:11;16.05;;;6.80;;
20669;SDS011;10494;50.868;4.180;2023-10-13T08:47:57;19.73;;;6.72;;
20669;SDS011;10494;50.868;4.180;2023-10-13T08:50:36;19.48;;;6.40;;
20669;SDS011;10494;50.868;4.180;2023-10-13T08:53:24;17.98;;;6.78;;
20669;SDS011;10494;50.868;4.180;2023-10-13T08:55:51;21.30;;;7.35;;
20669;SDS011;10494;50.868;4.180;2023-10-13T08:58:33;20.40;;;6.07;;
20669;SDS011;10494;50.868;4.180;2023-10-13T09:01:18;27.75;;;6.78;;
20669;SDS011;10494;50.868;4.180;2023-10-13T09:04:03;17.70;;;6.28;;
20669;SDS011;10494;50.868;4.180;2023-10-13T09:06:49;21.73;;;6.80;;
20669;SDS011;10494;50.868;4.180;2023-10-13T09:09:24;25.92;;;6.93;;
20669;SDS011;10494;50.868;4.180;2023-10-13T09:12:21;19.88;;;6.90;;
20669;SDS011;10494;50.868;4.180;2023-10-13T09:15:04;21.02;;;6.85;;
20669;SDS011;10494;50.868;4.180;2023-10-13T09:17:41;21.35;;;6.65;;
20669;SDS011;10494;50.868;4.180;2023-10-13T09:20:30;16.95;;;6.07;;
20669;SDS011;10494;50.868;4.180;2023-10-13T09:23:07;15.48;;;6.57;;
20669;SDS011;10494;50.868;4.180;2023-10-13T09:25:37;17.15;;;7.22;;
20669;SDS011;10494;50.868;4.180;2023-10-13T09:28:10;19.55;;;7.68;;
20669;SDS011;10494;50.868;4.180;2023-10-13T09:33:20;18.13;;;7.05;;
20669;SDS011;10494;50.868;4.180;2023-10-13T09:36:08;21.63;;;6.93;;
20669;SDS011;10494;50.868;4.180;2023-10-13T09:38:38;15.55;;;7.05;;
20669;SDS011;10494;50.868;4.180;2023-10-13T09:41:13;18.92;;;7.03;;
20669;SDS011;10494;50.868;4.180;2023-10-13T09:43:46;23.00;;;7.18;;
20669;SDS011;10494;50.868;4.180;2023-10-13T09:46:14;27.42;;;7.60;;
20669;SDS011;10494;50.868;4.180;2023-10-13T09:48:52;23.10;;;6.18;;
20669;SDS011;10494;50.868;4.180;2023-10-13T09:51:39;21.15;;;6.97;;
20669;SDS011;10494;50.868;4.180;2023-10-13T09:56:53;22.10;;;6.85;;
20669;SDS011;10494;50.868;4.180;2023-10-13T10:02:12;18.38;;;7.07;;
20669;SDS011;10494;50.868;4.180;2023-10-13T10:04:51;20.60;;;7.45;;
20669;SDS011;10494;50.868;4.180;2023-10-13T10:07:27;19.77;;;6.40;;
20669;SDS011;10494;50.868;4.180;2023-10-13T10:09:57;14.00;;;6.95;;
20669;SDS011;10494;50.868;4.180;2023-10-13T10:18:00;20.15;;;7.00;;
20669;SDS011;10494;50.868;4.180;2023-10-13T10:20:29;17.05;;;7.13;;
20669;SDS011;10494;50.868;4.180;2023-10-13T10:23:08;19.27;;;7.30;;
20669;SDS011;10494;50.868;4.180;2023-10-13T10:25:46;19.40;;;6.88;;
20669;SDS011;10494;50.868;4.180;2023-10-13T10:28:13;19.05;;;6.47;;
20669;SDS011;10494;50.868;4.180;2023-10-13T10:30:41;21.77;;;6.72;;
20669;SDS011;10494;50.868;4.180;2023-10-13T10:33:09;18.23;;;6.53;;
20669;SDS011;10494;50.868;4.180;2023-10-13T10:35:41;24.02;;;6.32;;
20669;SDS011;10494;50.868;4.180;2023-10-13T10:41:02;23.38;;;6.93;;
20669;SDS011;10494;50.868;4.180;2023-10-13T10:43:30;28.73;;;7.65;;
20669;SDS011;10494;50.868;4.180;2023-10-13T10:46:17;26.08;;;6.72;;
20669;SDS011;10494;50.868;4.180;2023-10-13T10:48:50;22.60;;;6.93;;
20669;SDS011;10494;50.868;4.180;2023-10-13T10:51:21;25.90;;;7.18;;
20669;SDS011;10494;50.868;4.180;2023-10-13T10:53:51;24.13;;;6.68;;
20669;SDS011;10494;50.868;4.180;2023-10-13T10:56:21;24.77;;;7.20;;
20669;SDS011;10494;50.868;4.180;2023-10-13T10:59:01;21.77;;;7.90;;
20669;SDS011;10494;50.868;4.180;2023-10-13T11:01:43;21.58;;;7.35;;
20669;SDS011;10494;50.868;4.180;2023-10-13T11:04:12;25.73;;;7.20;;
20669;SDS011;10494;50.868;4.180;2023-10-13T11:06:44;16.67;;;7.00;;
20669;SDS011;10494;50.868;4.180;2023-10-13T11:09:12;25.65;;;7.63;;
20669;SDS011;10494;50.868;4.180;2023-10-13T11:11:46;24.83;;;7.38;;
20669;SDS011;10494;50.868;4.180;2023-10-13T11:14:24;19.85;;;7.10;;
20669;SDS011;10494;50.868;4.180;2023-10-13T11:16:54;20.40;;;7.45;;
20669;SDS011;10494;50.868;4.180;2023-10-13T11:19:38;20.10;;;6.90;;
20669;SDS011;10494;50.868;4.180;2023-10-13T11:22:24;23.05;;;5.95;;
20669;SDS011;10494;50.868;4.180;2023-10-13T11:25:05;35.15;;;7.05;;
20669;SDS011;10494;50.868;4.180;2023-10-13T11:27:34;20.13;;;7.93;;
20669;SDS011;10494;50.868;4.180;2023-10-13T11:30:21;19.05;;;7.28;;
20669;SDS011;10494;50.868;4.180;2023-10-13T11:35:30;22.77;;;7.32;;
20669;SDS011;10494;50.868;4.180;2023-10-13T11:38:21;21.67;;;7.93;;
20669;SDS011;10494;50.868;4.180;2023-10-13T11:41:00;24.45;;;6.45;;
20669;SDS011;10494;50.868;4.180;2023-10-13T11:43:33;25.85;;;7.50;;
20669;SDS011;10494;50.868;4.180;2023-10-13T11:51:49;29.00;;;7.20;;
20669;SDS011;10494;50.868;4.180;2023-10-13T11:54:19;17.33;;;6.28;;
20669;SDS011;10494;50.868;4.180;2023-10-13T11:56:46;22.20;;;7.32;;
20669;SDS011;10494;50.868;4.180;2023-10-13T11:59:14;20.52;;;7.13;;
20669;SDS011;10494;50.868;4.180;2023-10-13T12:01:46;22.75;;;6.75;;
20669;SDS011;10494;50.868;4.180;2023-10-13T12:04:33;16.00;;;6.78;;
20669;SDS011;10494;50.868;4.180;2023-10-13T12:07:19;21.73;;;6.50;;
20669;SDS011;10494;50.868;4.180;2023-10-13T12:09:49;19.88;;;6.15;;
20669;SDS011;10494;50.868;4.180;2023-10-13T12:14:48;17.30;;;6.32;;
20669;SDS011;10494;50.868;4.180;2023-10-13T12:17:24;23.83;;;6.43;;
20669;SDS011;10494;50.868;4.180;2023-10-13T12:20:02;20.90;;;7.68;;
20669;SDS011;10494;50.868;4.180;2023-10-13T12:22:49;24.83;;;6.30;;
20669;SDS011;10494;50.868;4.180;2023-10-13T12:25:20;23.60;;;6.88;;
20669;SDS011;10494;50.868;4.180;2023-10-13T12:27:58;19.92;;;6.85;;
20669;SDS011;10494;50.868;4.180;2023-10-13T12:30:37;15.18;;;5.32;;
20669;SDS011;10494;50.868;4.180;2023-10-13T12:33:19;20.38;;;6.35;;
20669;SDS011;10494;50.868;4.180;2023-10-13T12:35:55;17.90;;;7.07;;
20669;SDS011;10494;50.868;4.180;2023-10-13T12:38:34;20.30;;;7.13;;
20669;SDS011;10494;50.868;4.180;2023-10-13T12:41:15;13.43;;;6.32;;
20669;SDS011;10494;50.868;4.180;2023-10-13T12:44:05;18.02;;;6.47;;
20669;SDS011;10494;50.868;4.180;2023-10-13T12:46:50;15.70;;;7.00;;
20669;SDS011;10494;50.868;4.180;2023-10-13T12:49:34;17.80;;;6.32;;
20669;SDS011;10494;50.868;4.180;2023-10-13T12:52:12;22.92;;;7.82;;
20669;SDS011;10494;50.868;4.180;2023-10-13T12:54:45;16.80;;;6.50;;
20669;SDS011;10494;50.868;4.180;2023-10-13T12:57:13;14.32;;;6.15;;
20669;SDS011;10494;50.868;4.180;2023-10-13T12:59:40;19.65;;;6.72;;
20669;SDS011;10494;50.868;4.180;2023-10-13T13:02:06;12.57;;;5.95;;
20669;SDS011;10494;50.868;4.180;2023-10-13T13:04:33;15.18;;;6.18;;
20669;SDS011;10494;50.868;4.180;2023-10-13T13:07:02;16.38;;;6.75;;
20669;SDS011;10494;50.868;4.180;2023-10-13T13:09:30;20.88;;;6.63;;
20669;SDS011;10494;50.868;4.180;2023-10-13T13:11:56;16.08;;;6.28;;
20669;SDS011;10494;50.868;4.180;2023-10-13T13:14:26;17.13;;;6.80;;
20669;SDS011;10494;50.868;4.180;2023-10-13T13:16:54;15.85;;;6.25;;
20669;SDS011;10494;50.868;4.180;2023-10-13T13:19:29;15.93;;;5.95;;
20669;SDS011;10494;50.868;4.180;2023-10-13T13:22:04;14.40;;;6.70;;
20669;SDS011;10494;50.868;4.180;2023-10-13T13:24:40;13.80;;;6.25;;
20669;SDS011;10494;50.868;4.180;2023-10-13T13:27:13;16.80;;;5.40;;
20669;SDS011;10494;50.868;4.180;2023-10-13T13:29:42;15.93;;;5.50;;
20669;SDS011;10494;50.868;4.180;2023-10-13T13:32:08;14.73;;;6.18;;
20669;SDS011;10494;50.868;4.180;2023-10-13T13:35:03;17.52;;;5.75;;
20669;SDS011;10494;50.868;4.180;2023-10-13T13:37:29;15.82;;;5.55;;
20669;SDS011;10494;50.868;4.180;2023-10-13T13:40:05;13.13;;;6.53;;
20669;SDS011;10494;50.868;4.180;2023-10-13T13:42:44;14.45;;;6.05;;
20669;SDS011;10494;50.868;4.180;2023-10-13T13:45:17;20.63;;;6.32;;
20669;SDS011;10494;50.868;4.180;2023-10-13T13:47:50;13.45;;;6.00;;
20669;SDS011;10494;50.868;4.180;2023-10-13T13:50:28;19.05;;;6.10;;
20669;SDS011;10494;50.868;4.180;2023-10-13T13:52:54;12.38;;;5.72;;
20669;SDS011;10494;50.868;4.180;2023-10-13T13:55:21;15.55;;;5.80;;
20669;SDS011;10494;50.868;4.180;2023-10-13T13:57:48;13.68;;;6.22;;
20669;SDS011;10494;50.868;4.180;2023-10-13T14:00:16;12.82;;;5.75;;
20669;SDS011;10494;50.868;4.180;2023-10-13T14:02:46;9.65;;;5.45;;
20669;SDS011;10494;50.868;4.180;2023-10-13T14:05:14;11.88;;;5.30;;
20669;SDS011;10494;50.868;4.180;2023-10-13T14:07:41;15.35;;;6.00;;
20669;SDS011;10494;50.868;4.180;2023-10-13T14:10:13;13.70;;;5.70;;
20669;SDS011;10494;50.868;4.180;2023-10-13T14:12:56;13.52;;;6.18;;
20669;SDS011;10494;50.868;4.180;2023-10-13T14:15:39;14.10;;;5.00;;
20669;SDS011;10494;50.868;4.180;2023-10-13T14:18:09;19.85;;;6.05;;
20669;SDS011;10494;50.868;4.180;2023-10-13T14:20:40;16.67;;;6.20;;
20669;SDS011;10494;50.868;4.180;2023-10-13T14:23:07;17.42;;;6.40;;
20669;SDS011;10494;50.868;4.180;2023-10-13T14:25:36;21.67;;;5.70;;
20669;SDS011;10494;50.868;4.180;2023-10-13T14:28:04;16.83;;;5.72;;
20669;SDS011;10494;50.868;4.180;2023-10-13T14:30:30;13.60;;;5.22;;
20669;SDS011;10494;50.868;4.180;2023-10-13T14:32:56;19.33;;;5.57;;
20669;SDS011;10494;50.868;4.180;2023-10-13T14:35:26;19.23;;;5.75;;
20669;SDS011;10494;50.868;4.180;2023-10-13T14:37:52;16.48;;;6.32;;
20669;SDS011;10494;50.868;4.180;2023-10-13T14:40:17;15.32;;;6.03;;
20669;SDS011;10494;50.868;4.180;2023-10-13T14:42:46;19.30;;;5.65;;
20669;SDS011;10494;50.868;4.180;2023-10-13T14:45:12;11.63;;;5.85;;
20669;SDS011;10494;50.868;4.180;2023-10-13T14:47:42;14.77;;;6.57;;
20669;SDS011;10494;50.868;4.180;2023-10-13T14:50:08;16.90;;;6.22;;
20669;SDS011;10494;50.868;4.180;2023-10-13T14:52:44;17.90;;;5.25;;
20669;SDS011;10494;50.868;4.180;2023-10-13T14:55:14;17.45;;;5.70;;
20669;SDS011;10494;50.868;4.180;2023-10-13T14:57:50;13.57;;;6.22;;
20669;SDS011;10494;50.868;4.180;2023-10-13T15:00:16;15.60;;;5.90;;
20669;SDS011;10494;50.868;4.180;2023-10-13T15:02:50;16.90;;;6.43;;
20669;SDS011;10494;50.868;4.180;2023-10-13T15:05:16;13.98;;;6.43;;
20669;SDS011;10494;50.868;4.180;2023-10-13T15:07:43;17.85;;;6.72;;
20669;SDS011;10494;50.868;4.180;2023-10-13T15:10:10;14.93;;;6.85;;
20669;SDS011;10494;50.868;4.180;2023-10-13T15:12:40;17.38;;;6.15;;
20669;SDS011;10494;50.868;4.180;2023-10-13T15:15:06;12.75;;;6.32;;
20669;SDS011;10494;50.868;4.180;2023-10-13T15:17:38;16.30;;;7.10;;
20669;SDS011;10494;50.868;4.180;2023-10-13T15:20:10;18.25;;;6.65;;
20669;SDS011;10494;50.868;4.180;2023-10-13T15:22:41;15.50;;;6.78;;
20669;SDS011;10494;50.868;4.180;2023-10-13T15:25:07;13.95;;;6.03;;
20669;SDS011;10494;50.868;4.180;2023-10-13T15:27:46;14.77;;;6.30;;
20669;SDS011;10494;50.868;4.180;2023-10-13T15:30:27;16.92;;;6.30;;
20669;SDS011;10494;50.868;4.180;2023-10-13T15:33:07;18.45;;;6.28;;
20669;SDS011;10494;50.868;4.180;2023-10-13T15:35:33;11.18;;;6.22;;
20669;SDS011;10494;50.868;4.180;2023-10-13T15:37:58;14.43;;;6.13;;
20669;SDS011;10494;50.868;4.180;2023-10-13T15:40:25;12.25;;;5.82;;
20669;SDS011;10494;50.868;4.180;2023-10-13T15:42:52;24.05;;;6.07;;
20669;SDS011;10494;50.868;4.180;2023-10-13T15:45:24;20.02;;;6.97;;
20669;SDS011;10494;50.868;4.180;2023-10-13T15:47:57;18.75;;;5.88;;